createdAt,value
2022-07-27T00:01:14.235Z,99.40
2022-07-27T00:03:43.277Z,99.50
2022-07-27T00:06:11.095Z,99.60
2022-07-27T00:08:38.636Z,99.60
2022-07-27T00:11:06.125Z,99.60
2022-07-27T00:13:33.503Z,99.60
2022-07-27T00:16:00.950Z,99.60
2022-07-27T00:18:28.297Z,99.60
2022-07-27T00:20:55.901Z,99.70
2022-07-27T00:23:23.159Z,99.70
2022-07-27T00:25:50.596Z,99.70
2022-07-27T00:28:17.907Z,99.60
2022-07-27T00:30:45.374Z,99.60
2022-07-27T00:33:16.875Z,99.50
2022-07-27T00:35:45.125Z,99.40
2022-07-27T00:38:12.432Z,99.30
2022-07-27T00:40:40.039Z,99.20
2022-07-27T00:43:07.585Z,99.20
2022-07-27T00:45:34.980Z,99.20
2022-07-27T00:48:02.310Z,99.20
2022-07-27T00:50:29.670Z,99.20
2022-07-27T00:52:56.980Z,99.30
2022-07-27T00:55:25.349Z,99.40
2022-07-27T00:57:53.301Z,99.60
2022-07-27T01:00:28.764Z,99.40
2022-07-27T01:02:57.414Z,99.30
2022-07-27T01:05:36.172Z,99.20
2022-07-27T01:08:05.641Z,99.20
2022-07-27T01:10:34.099Z,99.20
2022-07-27T01:13:02.174Z,99.10
2022-07-27T01:15:29.967Z,99.00
2022-07-27T01:17:59.221Z,98.70
2022-07-27T01:20:26.784Z,98.60
2022-07-27T01:22:54.384Z,98.50
2022-07-27T01:25:21.659Z,98.50
2022-07-27T01:27:49.140Z,98.60
2022-07-27T01:30:30.446Z,98.60
2022-07-27T01:33:06.772Z,98.70
2022-07-27T01:35:35.063Z,98.80
2022-07-27T01:38:03.153Z,98.90
2022-07-27T01:40:30.790Z,98.90
2022-07-27T01:42:58.116Z,98.90
2022-07-27T01:45:25.616Z,98.70
2022-07-27T01:47:53.157Z,98.60
2022-07-27T01:50:20.711Z,98.70
2022-07-27T01:52:48.666Z,98.60
2022-07-27T01:55:16.001Z,98.60
2022-07-27T01:57:43.297Z,98.60
2022-07-27T02:00:12.326Z,98.50
2022-07-27T02:02:40.204Z,98.40
2022-07-27T02:05:08.688Z,98.10
2022-07-27T02:07:36.128Z,97.90
2022-07-27T02:10:03.808Z,97.70
2022-07-27T02:12:37.516Z,97.60
2022-07-27T02:15:17.108Z,97.50
2022-07-27T02:17:47.549Z,97.40
2022-07-27T02:20:18.695Z,97.40
2022-07-27T02:22:47.166Z,97.30
2022-07-27T02:25:16.892Z,97.30
2022-07-27T02:27:44.852Z,97.30
2022-07-27T02:30:13.577Z,97.40
2022-07-27T02:32:44.119Z,97.70
2022-07-27T02:35:19.070Z,97.80
2022-07-27T02:37:48.973Z,98.00
2022-07-27T02:40:17.595Z,98.20
2022-07-27T02:42:48.744Z,98.50
2022-07-27T02:45:16.233Z,98.70
2022-07-27T02:47:44.495Z,98.70
2022-07-27T02:50:12.722Z,98.80
2022-07-27T02:52:40.229Z,98.70
2022-07-27T02:55:08.458Z,98.60
2022-07-27T02:57:37.909Z,98.50
2022-07-27T03:00:08.431Z,98.40
2022-07-27T03:02:36.530Z,98.30
2022-07-27T03:05:05.742Z,98.60
2022-07-27T03:07:33.220Z,98.30
2022-07-27T03:10:00.484Z,98.20
2022-07-27T03:12:27.939Z,98.10
2022-07-27T03:14:56.357Z,98.10
2022-07-27T03:17:23.805Z,98.10
2022-07-27T03:19:51.119Z,98.10
2022-07-27T03:22:18.392Z,98.00
2022-07-27T03:24:46.490Z,97.90
2022-07-27T03:27:13.876Z,97.90
2022-07-27T03:29:41.261Z,97.90
2022-07-27T03:32:08.620Z,97.90
2022-07-27T03:34:35.868Z,97.60
2022-07-27T03:37:03.327Z,97.40
2022-07-27T03:39:30.821Z,97.40
2022-07-27T03:41:58.315Z,97.50
2022-07-27T03:44:25.640Z,97.80
2022-07-27T03:46:53.031Z,97.40
2022-07-27T03:49:20.482Z,97.30
2022-07-27T03:51:47.812Z,97.20
2022-07-27T03:54:15.337Z,97.00
2022-07-27T03:56:42.761Z,96.80
2022-07-27T03:59:10.326Z,96.70
2022-07-27T04:01:37.969Z,96.90
2022-07-27T04:04:05.617Z,96.70
2022-07-27T04:06:32.884Z,96.10
2022-07-27T04:09:08.701Z,95.50
2022-07-27T04:11:37.721Z,94.90
2022-07-27T04:14:12.840Z,94.30
2022-07-27T04:16:41.480Z,93.80
2022-07-27T04:19:09.123Z,93.70
2022-07-27T04:21:36.550Z,92.90
2022-07-27T04:24:04.610Z,92.30
2022-07-27T04:26:31.904Z,91.70
2022-07-27T04:28:59.213Z,90.90
2022-07-27T04:31:26.860Z,90.30
2022-07-27T04:33:54.301Z,89.00
2022-07-27T04:36:21.603Z,87.70
2022-07-27T04:38:49.087Z,85.80
2022-07-27T04:41:16.330Z,84.50
2022-07-27T04:43:43.600Z,83.40
2022-07-27T04:46:15.338Z,82.10
2022-07-27T04:48:49.256Z,81.10
2022-07-27T04:51:17.987Z,80.20
2022-07-27T04:53:53.383Z,78.60
2022-07-27T04:56:26.672Z,78.30
2022-07-27T04:58:54.765Z,77.80
2022-07-27T05:01:23.274Z,76.90
2022-07-27T05:03:51.060Z,75.90
2022-07-27T05:06:18.929Z,75.20
2022-07-27T05:08:46.343Z,74.10
2022-07-27T05:11:13.606Z,73.10
2022-07-27T05:13:41.044Z,72.60
2022-07-27T05:16:10.279Z,72.00
2022-07-27T05:18:40.602Z,71.20
2022-07-27T05:21:09.669Z,70.90
2022-07-27T05:23:37.038Z,71.10
2022-07-27T05:26:04.690Z,71.10
2022-07-27T05:28:32.445Z,69.50
2022-07-27T05:31:00.196Z,69.30
2022-07-27T05:33:27.820Z,68.50
2022-07-27T05:35:58.245Z,68.50
2022-07-27T05:38:25.540Z,68.50
2022-07-27T05:40:53.289Z,68.80
2022-07-27T05:43:20.726Z,69.40
2022-07-27T05:45:48.165Z,69.30
2022-07-27T05:48:15.527Z,69.30
2022-07-27T05:50:43.865Z,69.00
2022-07-27T05:53:11.622Z,68.10
2022-07-27T05:55:39.041Z,67.90
2022-07-27T05:58:25.973Z,67.80
2022-07-27T06:00:53.947Z,67.60
2022-07-27T06:03:21.729Z,66.70
2022-07-27T06:05:49.227Z,67.40
2022-07-27T06:08:16.487Z,67.50
2022-07-27T06:10:43.955Z,67.00
2022-07-27T06:13:12.035Z,66.60
2022-07-27T06:15:40.341Z,65.70
2022-07-27T06:18:13.850Z,65.90
2022-07-27T06:20:43.179Z,65.20
2022-07-27T06:23:11.202Z,64.90
2022-07-27T06:25:38.514Z,64.10
2022-07-27T06:28:06.609Z,63.60
2022-07-27T06:30:34.494Z,63.90
2022-07-27T06:33:04.995Z,63.20
2022-07-27T06:35:34.078Z,62.70
2022-07-27T06:38:02.012Z,61.90
2022-07-27T06:40:30.101Z,62.30
2022-07-27T06:42:58.622Z,62.10
2022-07-27T06:45:27.056Z,61.50
2022-07-27T06:47:54.483Z,60.60
2022-07-27T06:50:22.339Z,60.10
2022-07-27T06:52:50.021Z,59.20
2022-07-27T06:55:17.821Z,59.30
2022-07-27T06:57:46.377Z,59.00
2022-07-27T07:00:15.076Z,58.90
2022-07-27T07:03:00.348Z,58.80
2022-07-27T07:05:27.771Z,58.50
2022-07-27T07:07:55.815Z,57.90
2022-07-27T07:10:24.981Z,58.60
2022-07-27T07:12:57.108Z,59.30
2022-07-27T07:15:27.530Z,59.80
2022-07-27T07:17:54.875Z,60.10
2022-07-27T07:20:22.823Z,60.40
2022-07-27T07:22:50.509Z,60.50
2022-07-27T07:25:18.117Z,61.50
2022-07-27T07:27:45.519Z,61.70
2022-07-27T07:30:13.124Z,61.70
2022-07-27T07:32:40.473Z,62.40
2022-07-27T07:35:08.497Z,62.80
2022-07-27T07:37:35.936Z,62.80
2022-07-27T07:40:25.232Z,62.00
2022-07-27T07:42:53.596Z,60.90
2022-07-27T07:45:22.689Z,61.50
2022-07-27T07:47:50.365Z,63.40
2022-07-27T07:50:19.081Z,62.70
2022-07-27T07:52:48.649Z,62.30
2022-07-27T07:55:19.154Z,62.60
2022-07-27T07:57:46.891Z,62.40
2022-07-27T08:00:14.859Z,61.20
2022-07-27T08:02:46.267Z,61.60
2022-07-27T08:05:15.640Z,62.10
2022-07-27T08:07:44.371Z,61.80
2022-07-27T08:10:14.941Z,61.60
2022-07-27T08:12:46.542Z,62.10
2022-07-27T08:15:15.376Z,62.50
2022-07-27T08:17:43.544Z,62.40
2022-07-27T08:20:12.576Z,62.30
2022-07-27T08:22:40.486Z,61.80
2022-07-27T08:25:09.452Z,61.10
2022-07-27T08:27:40.651Z,61.10
2022-07-27T08:30:11.603Z,60.60
2022-07-27T08:32:53.216Z,60.10
2022-07-27T08:35:21.662Z,59.60
2022-07-27T08:37:49.238Z,59.90
2022-07-27T08:43:06.495Z,59.80
2022-07-27T08:45:34.747Z,59.80
2022-07-27T08:48:03.142Z,59.30
2022-07-27T08:50:30.995Z,59.60
2022-07-27T08:53:04.989Z,58.60
2022-07-27T08:55:34.665Z,58.80
2022-07-27T08:58:03.714Z,58.60
2022-07-27T09:00:32.716Z,58.50
2022-07-27T09:03:00.769Z,58.10
2022-07-27T09:05:37.503Z,57.90
2022-07-27T09:08:16.864Z,57.60
2022-07-27T09:10:45.043Z,57.70
2022-07-27T09:13:33.263Z,57.50
2022-07-27T09:16:21.657Z,57.50
2022-07-27T09:18:57.989Z,57.80
2022-07-27T09:21:25.923Z,58.20
2022-07-27T09:24:17.817Z,57.70
2022-07-27T09:27:03.849Z,56.40
2022-07-27T09:29:36.489Z,55.80
2022-07-27T09:32:15.525Z,54.40
2022-07-27T09:34:43.173Z,53.90
2022-07-27T09:37:12.297Z,52.80
2022-07-27T09:39:39.842Z,52.30
2022-07-27T09:42:47.795Z,52.80
2022-07-27T09:45:04.009Z,52.40
2022-07-27T09:47:31.502Z,51.70
2022-07-27T09:50:20.183Z,52.20
2022-07-27T09:52:48.119Z,52.20
2022-07-27T09:55:21.175Z,52.00
2022-07-27T09:57:56.925Z,51.00
2022-07-27T10:00:25.970Z,51.10
2022-07-27T10:02:55.093Z,52.40
2022-07-27T10:05:23.415Z,52.10
2022-07-27T10:07:53.652Z,52.10
2022-07-27T10:10:22.245Z,52.10
2022-07-27T10:12:54.780Z,52.50
2022-07-27T10:15:24.464Z,52.90
2022-07-27T10:18:06.883Z,52.60
2022-07-27T10:20:38.517Z,52.80
2022-07-27T10:23:07.523Z,52.50
2022-07-27T10:25:38.211Z,53.20
2022-07-27T10:28:17.787Z,53.00
2022-07-27T10:30:48.306Z,52.50
2022-07-27T10:33:50.543Z,52.40
2022-07-27T10:36:20.317Z,52.50
2022-07-27T10:38:53.218Z,52.50
2022-07-27T10:41:35.933Z,52.70
2022-07-27T10:44:18.036Z,53.10
2022-07-27T10:46:50.920Z,53.60
2022-07-27T10:49:29.893Z,54.30
2022-07-27T10:51:59.385Z,55.60
2022-07-27T10:54:39.758Z,55.80
2022-07-27T10:57:09.290Z,56.70
2022-07-27T11:00:06.938Z,57.40
2022-07-27T11:02:42.362Z,58.10
2022-07-27T11:05:53.780Z,58.70
2022-07-27T11:10:48.476Z,59.10
2022-07-27T11:13:20.722Z,58.80
2022-07-27T11:18:54.827Z,59.20
2022-07-27T11:21:36.918Z,59.20
2022-07-27T11:24:12.083Z,58.70
2022-07-27T11:26:45.902Z,58.60
2022-07-27T11:29:16.067Z,58.00
2022-07-27T11:31:55.421Z,57.60
2022-07-27T11:34:28.987Z,57.40
2022-07-27T11:36:58.515Z,57.70
2022-07-27T11:39:59.389Z,57.60
2022-07-27T11:42:21.107Z,57.40
2022-07-27T11:44:49.184Z,57.90
2022-07-27T11:47:19.301Z,58.60
2022-07-27T11:49:47.382Z,59.40
2022-07-27T11:52:17.907Z,60.50
2022-07-27T11:54:51.760Z,60.10
2022-07-27T11:57:20.510Z,60.40
2022-07-27T11:59:47.850Z,60.50
2022-07-27T12:02:18.393Z,60.20
2022-07-27T12:04:48.626Z,60.40
2022-07-27T12:07:19.613Z,61.30
2022-07-27T12:09:51.024Z,61.70
2022-07-27T12:12:25.903Z,56.00
2022-07-27T12:14:58.377Z,55.00
2022-07-27T12:17:37.306Z,55.70
2022-07-27T12:20:16.324Z,54.40
2022-07-27T12:22:54.703Z,53.90
2022-07-27T12:25:22.199Z,54.10
2022-07-27T12:28:05.727Z,55.90
2022-07-27T12:30:37.297Z,55.50
2022-07-27T12:33:07.676Z,55.50
2022-07-27T12:35:47.249Z,55.20
2022-07-27T12:38:14.908Z,55.10
2022-07-27T12:40:46.849Z,54.40
2022-07-27T12:43:19.802Z,55.00
2022-07-27T12:45:49.280Z,54.30
2022-07-27T12:48:18.159Z,54.30
2022-07-27T12:50:48.785Z,54.70
2022-07-27T12:53:17.301Z,54.40
2022-07-27T12:55:45.113Z,56.00
2022-07-27T12:58:14.322Z,55.90
2022-07-27T13:00:43.335Z,56.70
2022-07-27T13:03:10.704Z,57.50
2022-07-27T13:05:38.024Z,59.40
2022-07-27T13:08:06.175Z,61.60
2022-07-27T13:10:34.333Z,62.90
2022-07-27T13:13:02.800Z,63.20
2022-07-27T13:15:30.492Z,63.90
2022-07-27T13:17:58.024Z,63.80
2022-07-27T13:20:25.530Z,63.40
2022-07-27T13:22:53.701Z,63.80
2022-07-27T13:25:21.834Z,63.50
2022-07-27T13:27:49.678Z,64.40
2022-07-27T13:30:18.817Z,64.80
2022-07-27T13:32:47.015Z,65.90
2022-07-27T13:35:15.050Z,66.90
2022-07-27T13:37:43.508Z,67.90
2022-07-27T13:40:11.487Z,69.50
2022-07-27T13:42:39.432Z,71.30
2022-07-27T13:45:10.825Z,71.80
2022-07-27T13:47:40.575Z,73.60
2022-07-27T13:50:17.091Z,75.00
2022-07-27T13:52:47.565Z,74.80
2022-07-27T13:55:16.964Z,74.90
2022-07-27T13:57:44.817Z,75.90
2022-07-27T14:00:13.037Z,76.80
2022-07-27T14:02:41.897Z,77.90
2022-07-27T14:05:12.873Z,77.90
2022-07-27T14:07:40.300Z,78.50
2022-07-27T14:10:26.854Z,79.30
2022-07-27T14:12:58.945Z,80.00
2022-07-27T14:15:27.216Z,80.00
2022-07-27T14:17:54.555Z,80.40
2022-07-27T14:20:22.059Z,81.40
2022-07-27T14:22:49.342Z,82.20
2022-07-27T14:25:16.903Z,82.70
2022-07-27T14:27:44.363Z,82.80
2022-07-27T14:30:15.076Z,82.80
2022-07-27T14:32:45.113Z,81.90
2022-07-27T14:35:12.830Z,81.60
2022-07-27T14:37:40.200Z,81.10
2022-07-27T14:40:08.329Z,80.50
2022-07-27T14:42:35.723Z,79.90
2022-07-27T14:45:04.238Z,79.10
2022-07-27T14:47:31.537Z,77.80
2022-07-27T14:49:58.867Z,77.40
2022-07-27T14:52:26.336Z,75.50
2022-07-27T14:54:59.835Z,75.20
2022-07-27T14:57:27.909Z,74.00
2022-07-27T14:59:55.236Z,73.60
2022-07-27T15:02:22.988Z,72.80
2022-07-27T15:04:50.368Z,73.60
2022-07-27T15:07:17.707Z,73.10
2022-07-27T15:09:44.997Z,73.90
2022-07-27T15:12:12.436Z,74.50
2022-07-27T15:14:40.204Z,75.20
2022-07-27T15:17:07.622Z,75.40
2022-07-27T15:19:34.931Z,75.20
2022-07-27T15:22:02.226Z,75.00
2022-07-27T15:24:31.846Z,75.00
2022-07-27T15:27:02.437Z,74.90
2022-07-27T15:29:29.773Z,74.70
2022-07-27T15:31:57.185Z,75.00
2022-07-27T15:34:24.482Z,75.10
2022-07-27T15:36:52.412Z,75.50
2022-07-27T15:39:21.536Z,75.40
2022-07-27T15:41:49.576Z,75.50
2022-07-27T15:44:21.922Z,74.80
2022-07-27T15:46:49.340Z,73.90
2022-07-27T15:49:17.549Z,73.70
2022-07-27T15:51:46.888Z,74.10
2022-07-27T15:54:15.367Z,74.20
2022-07-27T15:56:43.453Z,74.80
2022-07-27T15:59:11.102Z,75.20
2022-07-27T16:01:38.678Z,75.10
2022-07-27T16:04:06.494Z,75.50
2022-07-27T16:06:38.878Z,76.20
2022-07-27T16:09:09.148Z,76.60
2022-07-27T16:11:37.496Z,76.80
2022-07-27T16:14:04.853Z,77.20
2022-07-27T16:16:32.414Z,77.60
2022-07-27T16:19:12.653Z,78.30
2022-07-27T16:21:55.037Z,78.40
2022-07-27T16:24:25.137Z,78.20
2022-07-27T16:26:52.519Z,78.10
2022-07-27T16:29:20.077Z,78.10
2022-07-27T16:31:47.439Z,78.20
2022-07-27T16:34:14.837Z,78.00
2022-07-27T16:36:42.253Z,78.00
2022-07-27T16:39:10.059Z,78.10
2022-07-27T16:41:37.689Z,78.30
2022-07-27T16:44:05.389Z,78.60
2022-07-27T16:46:32.858Z,78.90
2022-07-27T16:49:00.539Z,78.90
2022-07-27T16:51:27.909Z,79.20
2022-07-27T16:53:55.326Z,79.00
2022-07-27T16:56:22.728Z,79.40
2022-07-27T16:58:50.246Z,79.60
2022-07-27T17:01:26.058Z,80.00
2022-07-27T17:03:56.245Z,80.10
2022-07-27T17:06:24.640Z,80.40
2022-07-27T17:08:52.223Z,80.60
2022-07-27T17:11:21.510Z,80.80
2022-07-27T17:13:50.657Z,81.00
2022-07-27T17:16:18.603Z,81.30
2022-07-27T17:18:46.201Z,81.50
2022-07-27T17:21:13.814Z,81.90
2022-07-27T17:23:42.593Z,82.80
2022-07-27T17:26:13.107Z,82.20
2022-07-27T17:28:41.236Z,82.10
2022-07-27T17:31:12.272Z,82.00
2022-07-27T17:33:40.446Z,82.20
2022-07-27T17:36:14.725Z,82.10
2022-07-27T17:38:44.532Z,82.20
2022-07-27T17:41:13.596Z,82.40
2022-07-27T17:43:41.016Z,82.40
2022-07-27T17:46:10.400Z,81.90
2022-07-27T17:48:39.062Z,82.00
2022-07-27T17:51:08.155Z,82.20
2022-07-27T17:53:35.813Z,81.90
2022-07-27T17:56:04.723Z,81.70
2022-07-27T17:58:32.182Z,81.40
2022-07-27T18:01:00.016Z,81.30
2022-07-27T18:03:27.421Z,81.20
2022-07-27T18:05:55.294Z,81.40
2022-07-27T18:08:22.581Z,81.40
2022-07-27T18:10:51.615Z,81.50
2022-07-27T18:13:19.247Z,81.50
2022-07-27T18:15:54.666Z,81.20
2022-07-27T18:18:25.571Z,80.80
2022-07-27T18:20:55.280Z,80.50
2022-07-27T18:23:26.128Z,80.30
2022-07-27T18:25:53.877Z,80.30
2022-07-27T18:28:21.269Z,81.20
2022-07-27T18:30:50.409Z,81.90
2022-07-27T18:33:18.681Z,82.50
2022-07-27T18:35:46.998Z,83.20
2022-07-27T18:38:15.103Z,83.70
2022-07-27T18:40:46.080Z,84.10
2022-07-27T18:43:14.638Z,84.50
2022-07-27T18:45:42.433Z,85.00
2022-07-27T18:48:10.271Z,85.60
2022-07-27T18:50:39.842Z,85.90
2022-07-27T18:53:08.807Z,86.20
2022-07-27T18:55:36.835Z,86.60
2022-07-27T18:58:04.913Z,87.00
2022-07-27T19:00:33.430Z,87.40
2022-07-27T19:03:00.987Z,87.60
2022-07-27T19:05:40.652Z,88.00
2022-07-27T19:08:13.179Z,88.50
2022-07-27T19:10:42.483Z,89.00
2022-07-27T19:13:11.331Z,89.30
2022-07-27T19:15:42.517Z,89.70
2022-07-27T19:18:11.456Z,90.00
2022-07-27T19:20:38.870Z,90.00
2022-07-27T19:23:06.872Z,90.20
2022-07-27T19:25:34.765Z,90.50
2022-07-27T19:28:03.899Z,91.00
2022-07-27T19:30:31.513Z,90.90
2022-07-27T19:32:59.374Z,91.00
2022-07-27T19:35:26.956Z,91.20
2022-07-27T19:37:54.333Z,91.40
2022-07-27T19:43:09.232Z,92.20
2022-07-27T19:45:36.686Z,92.60
2022-07-27T19:48:05.664Z,92.90
2022-07-27T19:50:33.443Z,92.80
2022-07-27T19:53:01.811Z,92.40
2022-07-27T19:55:29.497Z,92.40
2022-07-27T19:57:56.894Z,91.80
2022-07-27T20:00:24.391Z,90.20
2022-07-27T20:02:52.037Z,88.40
2022-07-27T20:05:19.474Z,87.10
2022-07-27T20:07:46.749Z,86.80
2022-07-27T20:10:14.516Z,86.60
2022-07-27T20:12:41.804Z,86.40
2022-07-27T20:15:09.631Z,86.50
2022-07-27T20:17:37.693Z,86.50
2022-07-27T20:20:08.860Z,86.70
2022-07-27T20:22:36.647Z,86.90
2022-07-27T20:25:04.711Z,87.20
2022-07-27T20:27:32.635Z,87.50
2022-07-27T20:30:00.028Z,87.40
2022-07-27T20:32:27.566Z,87.60
2022-07-27T20:34:55.215Z,87.40
2022-07-27T20:37:22.620Z,87.10
2022-07-27T20:39:51.676Z,87.40
2022-07-27T20:42:19.323Z,87.50
2022-07-27T20:44:46.763Z,87.60
2022-07-27T20:47:15.099Z,87.80
2022-07-27T20:49:42.494Z,88.00
2022-07-27T20:52:09.866Z,88.50
2022-07-27T20:54:38.303Z,88.80
2022-07-27T20:57:05.707Z,89.10
2022-07-27T20:59:33.234Z,89.50
2022-07-27T21:02:01.557Z,89.70
2022-07-27T21:04:28.915Z,90.00
2022-07-27T21:06:56.375Z,90.10
2022-07-27T21:09:25.183Z,90.10
2022-07-27T21:11:53.697Z,90.20
2022-07-27T21:14:20.959Z,90.30
2022-07-27T21:16:48.482Z,90.20
2022-07-27T21:19:16.864Z,90.20
2022-07-27T21:21:44.562Z,90.20
2022-07-27T21:24:18.644Z,90.30
2022-07-27T21:26:48.979Z,90.20
2022-07-27T21:29:17.382Z,90.10
2022-07-27T21:31:46.640Z,90.20
2022-07-27T21:34:17.812Z,90.20
2022-07-27T21:36:46.049Z,90.20
2022-07-27T21:39:13.539Z,90.20
2022-07-27T21:41:41.088Z,90.10
2022-07-27T21:44:08.538Z,90.20
2022-07-27T21:46:36.035Z,90.10
2022-07-27T21:49:04.212Z,90.10
2022-07-27T21:51:31.534Z,90.10
2022-07-27T21:53:59.078Z,90.10
2022-07-27T21:56:26.653Z,90.10
2022-07-27T21:58:53.995Z,90.10
2022-07-27T22:01:22.044Z,90.30
2022-07-27T22:03:49.697Z,90.50
2022-07-27T22:06:17.617Z,90.60
2022-07-27T22:08:46.540Z,90.70
2022-07-27T22:11:14.385Z,90.80
2022-07-27T22:13:41.804Z,90.90
2022-07-27T22:16:09.503Z,90.90
2022-07-27T22:18:37.111Z,91.00
2022-07-27T22:21:04.800Z,91.10
2022-07-27T22:23:32.232Z,91.60
2022-07-27T22:25:59.790Z,91.60
2022-07-27T22:28:27.078Z,91.90
2022-07-27T22:31:00.138Z,92.10
2022-07-27T22:33:44.242Z,92.40
2022-07-27T22:36:12.316Z,92.50
2022-07-27T22:38:39.814Z,92.70
2022-07-27T22:41:07.933Z,92.80
2022-07-27T22:43:35.689Z,93.00
2022-07-27T22:46:04.601Z,93.10
2022-07-27T22:48:32.589Z,93.20
2022-07-27T22:50:59.947Z,93.30
2022-07-27T22:53:27.359Z,93.30
2022-07-27T22:55:54.747Z,93.40
2022-07-27T22:58:22.572Z,93.50
2022-07-27T23:00:49.947Z,93.60
2022-07-27T23:03:17.377Z,93.70
2022-07-27T23:05:44.752Z,93.80
2022-07-27T23:08:12.372Z,93.80
2022-07-27T23:10:48.420Z,93.90
2022-07-27T23:13:17.292Z,94.10
2022-07-27T23:15:46.107Z,94.20
2022-07-27T23:18:14.312Z,94.30
2022-07-27T23:20:42.138Z,94.40
2022-07-27T23:23:16.383Z,94.60
2022-07-27T23:25:49.057Z,94.80
2022-07-27T23:28:18.181Z,95.40
2022-07-27T23:30:45.687Z,95.30
2022-07-27T23:33:12.983Z,95.60
2022-07-27T23:35:40.270Z,95.70
2022-07-27T23:38:07.665Z,95.90
2022-07-27T23:40:35.427Z,96.10
2022-07-27T23:43:02.808Z,96.20
2022-07-27T23:45:30.180Z,96.30
2022-07-27T23:47:57.586Z,96.40
2022-07-27T23:50:25.146Z,96.40
2022-07-27T23:52:52.778Z,96.50
2022-07-27T23:55:20.106Z,96.60
2022-07-27T23:57:47.529Z,96.60
